Flight Track Log - Related Links

Times and Time Zones

All times are in EDT time to prevent confusion due to time zone crossing. See the EJA396 flight status page for this flight to view local times or setup timezone preferences in your user account.


Time Position Orientation Groundspeed Altitude Reporting Facility
EDT Latitude Longitude Course Direction KTS MPH feet Rate Location/Type
Sun 10:52:42 AM 42.2500 -87.9500 352° North 276 318 6,700  Level Chicago TRACON
Sun 10:53:18 AM 42.2775 -87.9497 360° North 273 314 8,500 3,278 Climbing Chicago Center
Sun 10:54:19 AM 42.3644 -87.8953 25° Northeast 312 359 12,000 1,707 Climbing Chicago Center
Sun 10:55:21 AM 42.4586 -87.8381 24° Northeast 365 420 12,000  Level Chicago Center
Sun 10:56:23 AM 42.5522 -87.7797 25° Northeast 370 426 12,000  Level Chicago Center
Sun 10:57:25 AM 42.6467 -87.7258 23° Northeast 369 425 12,000  Level Chicago Center
Sun 10:58:27 AM 42.7372 -87.6181 41° Northeast 383 441 12,000  Level Chicago Center
Sun 10:59:29 AM 42.7806 -87.4803 67° East 396 456 12,000  Level Chicago Center
Sun 11:00:30 AM 42.8222 -87.3500 66° East 397 457 12,000 -677 Level Chicago Center
Sun 11:01:33 AM 42.8656 -87.2147 66° East 392 451 10,600 -968 Descending Chicago Center
Sun 11:02:34 AM 42.9064 -87.0847 67° East 377 434 10,000 -293 Descending Chicago Center
Sun 11:03:36 AM 42.9481 -86.9544 66° East 377 434 10,000 -387 Level Chicago Center
Sun 11:04:38 AM 43.0003 -86.8161 63° Northeast 342 394 9,200 -968 Descending Chicago Center
Sun 11:05:40 AM 43.0381 -86.7206 62° Northeast 293 337 8,000 -1,403 Descending Chicago Center
Sun 11:06:42 AM 43.0761 -86.6283 61° Northeast 282 325 6,300 -1,561 Descending Chicago Center
Sun 11:07:43 AM 43.1147 -86.5375 60° Northeast 277 319 4,800 -1,122 Descending Chicago Center
Sun 11:08:45 AM 43.1553 -86.4450 59° Northeast 277 319 4,000 -387 Descending Chicago Center
Sun 11:09:47 AM 43.1914 -86.3561 61° Northeast 273 314 4,000  Level Chicago Center
Sun 11:10:49 AM 43.2281 -86.2647 61° Northeast 273 314 4,000 -581 Level Chicago Center
Sun 11:11:51 AM 43.2697 -86.1650 60° Northeast 260 299 2,800 -629 Descending Chicago Center
Sun 11:12:53 AM 43.2989 -86.0964 60° Northeast 230 265 2,700 -49 Descending Chicago Center
Sun 11:13:54 AM 43.2792 -86.0494 120° Southeast 189 217 2,700  Level Chicago Center
Sun 11:14:56 AM 43.2467 -86.0706 205° Southwest 151 174 2,700  Level Chicago Center
Sun 11:15:58 AM 43.2306 -86.1106 241° Southwest 131 151 2,700 -290 Level Chicago Center
Sun 11:17:00 AM 43.2125 -86.1469 236° Southwest 121 139 2,100 -581 Descending Chicago Center
Sun 11:18:02 AM 43.1950 -86.1842 237° Southwest 118 136 1,500 -634 Descending Chicago Center
Sun 11:19:03 AM 43.1731 -86.2303 237° Southwest 120 138 800 -689 Descending Chicago Center

Login

Don't have an account? Register now (free) for customized features, flight alerts, and more!